createdAt,value
2019-06-26T00:00:56.646Z,23.60
2019-06-26T00:03:23.148Z,23.50
2019-06-26T00:05:49.663Z,23.50
2019-06-26T00:08:16.176Z,23.50
2019-06-26T00:10:42.714Z,23.50
2019-06-26T00:13:22.098Z,23.50
2019-06-26T00:15:37.292Z,23.50
2019-06-26T00:18:03.725Z,23.50
2019-06-26T00:20:30.174Z,23.50
2019-06-26T00:22:56.922Z,23.50
2019-06-26T00:25:23.471Z,23.50
2019-06-26T00:27:49.920Z,23.50
2019-06-26T00:30:16.450Z,23.50
2019-06-26T00:32:42.879Z,23.50
2019-06-26T00:35:09.362Z,23.50
2019-06-26T00:37:35.858Z,23.50
2019-06-26T00:40:02.326Z,23.50
2019-06-26T00:42:28.764Z,23.50
2019-06-26T00:44:55.250Z,23.50
2019-06-26T00:47:21.673Z,23.50
2019-06-26T00:49:48.110Z,23.50
2019-06-26T00:52:14.716Z,23.50
2019-06-26T00:54:41.232Z,23.40
2019-06-26T00:57:07.656Z,23.40
2019-06-26T00:59:34.123Z,23.50
2019-06-26T01:02:00.552Z,23.40
2019-06-26T01:04:27.010Z,23.40
2019-06-26T01:06:53.465Z,23.40
2019-06-26T01:09:21.780Z,23.50
2019-06-26T01:11:48.148Z,23.40
2019-06-26T01:14:14.618Z,23.40
2019-06-26T01:16:41.046Z,23.40
2019-06-26T01:19:07.591Z,23.40
2019-06-26T01:21:34.096Z,23.40
2019-06-26T01:24:00.565Z,23.40
2019-06-26T01:26:26.996Z,23.40
2019-06-26T01:28:53.473Z,23.40
2019-06-26T01:31:19.917Z,23.40
2019-06-26T01:33:46.346Z,23.40
2019-06-26T01:36:12.881Z,23.40
2019-06-26T01:38:39.340Z,23.40
2019-06-26T01:41:05.786Z,23.40
2019-06-26T01:43:32.233Z,23.40
2019-06-26T01:45:58.667Z,23.40
2019-06-26T01:48:25.133Z,23.40
2019-06-26T01:50:51.652Z,23.40
2019-06-26T01:53:18.111Z,23.40
2019-06-26T01:55:44.538Z,23.40
2019-06-26T01:58:10.987Z,23.40
2019-06-26T02:00:37.516Z,23.30
2019-06-26T02:03:04.039Z,23.40
2019-06-26T02:05:30.469Z,23.30
2019-06-26T02:07:56.906Z,23.40
2019-06-26T02:10:23.336Z,23.40
2019-06-26T02:12:49.817Z,23.30
2019-06-26T02:15:16.252Z,23.40
2019-06-26T02:17:42.689Z,23.40
2019-06-26T02:20:09.155Z,23.30
2019-06-26T02:22:35.610Z,23.30
2019-06-26T02:25:02.181Z,23.40
2019-06-26T02:27:28.977Z,23.30
2019-06-26T02:29:57.345Z,23.40
2019-06-26T02:32:23.608Z,23.30
2019-06-26T02:34:50.050Z,23.30
2019-06-26T02:37:16.479Z,23.30
2019-06-26T02:39:42.920Z,23.30
2019-06-26T02:42:09.383Z,23.30
2019-06-26T02:44:51.966Z,23.30
2019-06-26T02:47:18.398Z,23.30
2019-06-26T02:49:32.077Z,23.30
2019-06-26T02:51:58.468Z,23.30
2019-06-26T02:54:24.974Z,23.30
2019-06-26T02:56:51.470Z,23.30
2019-06-26T02:59:17.919Z,23.30
2019-06-26T03:01:44.319Z,23.30
2019-06-26T03:04:10.811Z,23.20
2019-06-26T03:06:37.246Z,23.30
2019-06-26T03:09:03.684Z,23.30
2019-06-26T03:11:30.420Z,23.20
2019-06-26T03:13:56.877Z,23.20
2019-06-26T03:16:23.313Z,23.20
2019-06-26T03:18:50.761Z,23.30
2019-06-26T03:21:17.200Z,23.20
2019-06-26T03:23:43.625Z,23.20
2019-06-26T03:26:10.099Z,23.20
2019-06-26T03:28:36.526Z,23.20
2019-06-26T03:31:02.956Z,23.20
2019-06-26T03:33:29.501Z,23.20
2019-06-26T03:35:55.917Z,23.20
2019-06-26T03:38:22.474Z,23.20
2019-06-26T03:40:48.921Z,23.20
2019-06-26T03:43:15.369Z,23.20
2019-06-26T03:45:41.894Z,23.20
2019-06-26T03:48:08.381Z,23.20
2019-06-26T03:50:34.831Z,23.20
2019-06-26T03:53:01.248Z,23.20
2019-06-26T03:55:27.714Z,23.20
2019-06-26T03:57:54.170Z,23.20
2019-06-26T04:00:20.637Z,23.20
2019-06-26T04:02:47.178Z,23.20
2019-06-26T04:05:13.595Z,23.20
2019-06-26T04:07:40.027Z,23.20
2019-06-26T04:10:06.504Z,23.20
2019-06-26T04:12:32.950Z,23.20
2019-06-26T04:14:59.390Z,23.20
2019-06-26T04:17:25.851Z,23.20
2019-06-26T04:19:52.291Z,23.20
2019-06-26T04:22:18.736Z,23.10
2019-06-26T04:24:45.304Z,23.20
2019-06-26T04:27:11.776Z,23.20
2019-06-26T04:29:38.189Z,23.20
2019-06-26T04:32:04.713Z,23.20
2019-06-26T04:34:31.131Z,23.10
2019-06-26T04:36:57.600Z,23.20
2019-06-26T04:39:24.188Z,23.10
2019-06-26T04:41:50.670Z,23.10
2019-06-26T04:44:19.133Z,23.20
2019-06-26T04:46:45.324Z,23.20
2019-06-26T04:49:11.754Z,23.10
2019-06-26T04:51:38.216Z,23.10
2019-06-26T04:54:04.688Z,23.10
2019-06-26T04:56:31.119Z,23.10
2019-06-26T04:58:57.545Z,23.10
2019-06-26T05:01:24.052Z,23.10
2019-06-26T05:03:50.540Z,23.10
2019-06-26T05:06:16.920Z,23.10
2019-06-26T05:08:43.477Z,23.10
2019-06-26T05:11:12.595Z,23.10
2019-06-26T05:13:38.047Z,23.10
2019-06-26T05:16:14.098Z,23.10
2019-06-26T05:18:32.711Z,23.10
2019-06-26T05:20:59.094Z,23.10
2019-06-26T05:23:25.732Z,23.10
2019-06-26T05:25:52.142Z,23.10
2019-06-26T05:28:18.677Z,23.10
2019-06-26T05:30:45.165Z,23.10
2019-06-26T05:33:11.604Z,23.10
2019-06-26T05:35:39.264Z,23.10
2019-06-26T05:38:05.732Z,23.10
2019-06-26T05:40:32.190Z,23.10
2019-06-26T05:42:58.627Z,23.10
2019-06-26T05:45:25.093Z,23.10
2019-06-26T05:47:51.553Z,23.10
2019-06-26T05:50:18.005Z,23.10
2019-06-26T05:52:44.479Z,23.10
2019-06-26T05:55:13.685Z,23.10
2019-06-26T05:57:41.886Z,23.10
2019-06-26T06:00:08.337Z,23.10
2019-06-26T06:02:34.752Z,23.10
2019-06-26T06:05:01.332Z,23.10
2019-06-26T06:07:27.877Z,23.10
2019-06-26T06:09:54.317Z,23.00
2019-06-26T06:12:20.752Z,23.10
2019-06-26T06:14:47.245Z,23.00
2019-06-26T06:17:13.666Z,23.00
2019-06-26T06:19:40.143Z,23.00
2019-06-26T06:22:06.566Z,23.00
2019-06-26T06:24:33.017Z,23.00
2019-06-26T06:26:59.471Z,23.00
2019-06-26T06:29:25.945Z,23.00
2019-06-26T06:31:52.463Z,23.00
2019-06-26T06:34:18.932Z,23.00
2019-06-26T06:36:45.393Z,23.00
2019-06-26T06:39:11.808Z,23.00
2019-06-26T06:41:38.264Z,23.00
2019-06-26T06:44:04.705Z,23.00
2019-06-26T06:46:31.151Z,23.00
2019-06-26T06:48:57.558Z,23.00
2019-06-26T06:51:24.040Z,23.00
2019-06-26T06:53:50.463Z,23.00
2019-06-26T06:56:16.886Z,23.00
2019-06-26T06:58:43.400Z,23.00
2019-06-26T07:01:09.823Z,23.00
2019-06-26T07:03:36.270Z,23.00
2019-06-26T07:06:02.757Z,23.00
2019-06-26T07:08:29.211Z,23.00
2019-06-26T07:10:55.635Z,23.00
2019-06-26T07:13:22.134Z,23.00
2019-06-26T07:15:48.594Z,23.00
2019-06-26T07:18:16.889Z,23.00
2019-06-26T07:20:44.748Z,23.00
2019-06-26T07:23:11.371Z,23.00
2019-06-26T07:25:37.843Z,23.00
2019-06-26T07:28:04.394Z,23.00
2019-06-26T07:30:30.928Z,23.00
2019-06-26T07:32:57.327Z,23.00
2019-06-26T07:35:23.799Z,22.90
2019-06-26T07:37:50.321Z,22.90
2019-06-26T07:40:16.747Z,22.90
2019-06-26T07:42:43.335Z,22.90
2019-06-26T07:45:09.769Z,23.00
2019-06-26T07:47:43.116Z,22.90
2019-06-26T07:50:04.398Z,22.90
2019-06-26T07:52:30.849Z,22.90
2019-06-26T07:54:57.383Z,22.90
2019-06-26T07:57:23.869Z,22.90
2019-06-26T07:59:50.333Z,22.90
2019-06-26T08:02:16.786Z,22.90
2019-06-26T08:04:43.321Z,22.90
2019-06-26T08:07:09.867Z,22.90
2019-06-26T08:09:36.296Z,22.90
2019-06-26T08:12:02.792Z,23.00
2019-06-26T08:14:29.244Z,22.90
2019-06-26T08:16:55.684Z,22.90
2019-06-26T08:19:24.108Z,22.90
2019-06-26T08:21:50.278Z,22.90
2019-06-26T08:24:16.819Z,22.90
2019-06-26T08:26:43.255Z,22.90
2019-06-26T08:29:09.692Z,22.90
2019-06-26T08:34:21.564Z,22.90
2019-06-26T08:36:48.040Z,22.90
2019-06-26T08:39:14.445Z,22.90
2019-06-26T08:41:40.878Z,22.90
2019-06-26T08:44:07.318Z,22.90
2019-06-26T08:46:33.762Z,22.90
2019-06-26T08:49:00.239Z,22.90
2019-06-26T08:51:26.658Z,22.90
2019-06-26T08:53:53.098Z,22.90
2019-06-26T08:56:19.589Z,22.90
2019-06-26T08:58:46.022Z,22.90
2019-06-26T09:01:12.459Z,22.90
2019-06-26T09:03:42.025Z,22.90
2019-06-26T09:06:07.053Z,22.90
2019-06-26T09:08:33.641Z,22.90
2019-06-26T09:11:00.182Z,22.90
2019-06-26T09:13:26.625Z,22.90
2019-06-26T09:15:53.059Z,22.90
2019-06-26T09:18:34.290Z,22.90
2019-06-26T09:20:47.634Z,22.90
2019-06-26T09:23:14.146Z,22.90
2019-06-26T09:25:40.635Z,22.90
2019-06-26T09:28:07.069Z,22.90
2019-06-26T09:30:33.608Z,22.90
2019-06-26T09:33:00.134Z,22.90
2019-06-26T09:35:26.646Z,22.90
2019-06-26T09:37:53.199Z,22.90
2019-06-26T09:40:19.657Z,22.90
2019-06-26T09:42:46.139Z,22.90
2019-06-26T09:45:12.602Z,22.90
2019-06-26T09:47:39.065Z,22.90
2019-06-26T09:50:05.481Z,22.90
2019-06-26T09:52:31.950Z,22.90
2019-06-26T09:54:58.411Z,22.90
2019-06-26T09:57:24.888Z,22.90
2019-06-26T09:59:51.332Z,22.80
2019-06-26T10:02:17.805Z,22.90
2019-06-26T10:04:44.257Z,22.90
2019-06-26T10:07:10.699Z,22.90
2019-06-26T10:09:37.315Z,22.90
2019-06-26T10:12:03.691Z,22.90
2019-06-26T10:14:46.607Z,22.90
2019-06-26T10:16:58.315Z,22.90
2019-06-26T10:19:24.757Z,22.90
2019-06-26T10:21:51.290Z,22.90
2019-06-26T10:24:17.772Z,22.90
2019-06-26T10:26:44.267Z,22.90
2019-06-26T10:29:10.652Z,22.90
2019-06-26T10:31:37.199Z,22.90
2019-06-26T10:34:03.756Z,22.90
2019-06-26T10:36:30.207Z,22.90
2019-06-26T10:38:56.757Z,22.90
2019-06-26T10:41:23.205Z,22.90
2019-06-26T10:43:49.629Z,22.90
2019-06-26T10:46:16.141Z,22.90
2019-06-26T10:48:42.567Z,22.90
2019-06-26T10:51:09.013Z,22.90
2019-06-26T10:53:35.577Z,22.90
2019-06-26T10:56:02.034Z,22.90
2019-06-26T10:58:28.465Z,22.90
2019-06-26T11:00:55.128Z,22.90
2019-06-26T11:03:21.698Z,22.90
2019-06-26T11:05:48.143Z,22.90
2019-06-26T11:08:14.543Z,22.90
2019-06-26T11:10:40.969Z,22.90
2019-06-26T11:13:07.407Z,22.90
2019-06-26T11:15:33.980Z,22.90
2019-06-26T11:18:00.434Z,22.90
2019-06-26T11:20:26.856Z,22.90
2019-06-26T11:22:53.322Z,22.90
2019-06-26T11:25:20.934Z,22.90
2019-06-26T11:27:47.311Z,22.90
2019-06-26T11:30:13.778Z,22.90
2019-06-26T11:32:40.305Z,22.90
2019-06-26T11:35:06.744Z,22.90
2019-06-26T11:37:33.253Z,22.90
2019-06-26T11:39:59.840Z,22.90
2019-06-26T11:42:28.087Z,22.90
2019-06-26T11:44:54.544Z,22.90
2019-06-26T11:47:21.099Z,22.90
2019-06-26T11:49:59.506Z,22.90
2019-06-26T11:52:17.485Z,22.90
2019-06-26T11:54:43.892Z,22.90
2019-06-26T11:57:10.346Z,22.90
2019-06-26T11:59:36.887Z,22.90
2019-06-26T12:02:03.262Z,22.90
2019-06-26T12:04:29.727Z,22.90
2019-06-26T12:06:56.308Z,22.90
2019-06-26T12:09:22.756Z,22.90
2019-06-26T12:11:49.226Z,22.90
2019-06-26T12:14:15.717Z,22.90
2019-06-26T12:16:42.410Z,22.90
2019-06-26T12:19:08.982Z,22.90
2019-06-26T12:21:35.472Z,23.00
2019-06-26T12:24:01.905Z,23.00
2019-06-26T12:26:28.503Z,22.90
2019-06-26T12:28:55.960Z,23.00
2019-06-26T12:31:22.409Z,23.00
2019-06-26T12:33:50.051Z,23.00
2019-06-26T12:36:16.836Z,23.00
2019-06-26T12:38:43.247Z,23.00
2019-06-26T12:41:09.703Z,23.00
2019-06-26T12:43:36.198Z,23.00
2019-06-26T12:46:02.638Z,23.00
2019-06-26T12:48:30.807Z,23.00
2019-06-26T12:50:57.225Z,23.00
2019-06-26T12:53:23.669Z,23.00
2019-06-26T12:55:50.106Z,23.00
2019-06-26T12:58:20.051Z,23.00
2019-06-26T13:00:44.712Z,23.00
2019-06-26T13:03:11.160Z,23.10
2019-06-26T13:05:37.631Z,23.00
2019-06-26T13:08:04.096Z,23.10
2019-06-26T13:10:30.540Z,23.00
2019-06-26T13:12:57.032Z,23.10
2019-06-26T13:15:23.447Z,23.10
2019-06-26T13:17:49.898Z,23.10
2019-06-26T13:20:16.391Z,23.10
2019-06-26T13:22:42.840Z,23.10
2019-06-26T13:25:09.268Z,23.10
2019-06-26T13:27:35.842Z,23.10
2019-06-26T13:30:02.299Z,23.10
2019-06-26T13:32:28.767Z,23.10
2019-06-26T13:34:55.230Z,23.10
2019-06-26T13:37:21.654Z,23.10
2019-06-26T13:39:48.091Z,23.10
2019-06-26T13:42:14.563Z,23.10
2019-06-26T13:44:41.029Z,23.10
2019-06-26T13:47:07.468Z,23.10
2019-06-26T13:49:33.938Z,23.10
2019-06-26T13:52:00.388Z,23.10
2019-06-26T13:54:26.823Z,23.10
2019-06-26T13:56:53.285Z,23.10
2019-06-26T13:59:19.747Z,23.10
2019-06-26T14:01:46.185Z,23.20
2019-06-26T14:04:12.746Z,23.10
2019-06-26T14:06:39.233Z,23.10
2019-06-26T14:09:07.552Z,23.10
2019-06-26T14:11:33.795Z,23.20
2019-06-26T14:14:00.281Z,23.20
2019-06-26T14:16:29.830Z,23.10
2019-06-26T14:18:55.101Z,23.20
2019-06-26T14:21:26.043Z,23.20
2019-06-26T14:23:49.645Z,23.20
2019-06-26T14:26:16.115Z,23.20
2019-06-26T14:28:42.551Z,23.20
2019-06-26T14:31:08.984Z,23.20
2019-06-26T14:33:35.462Z,23.20
2019-06-26T14:36:01.987Z,23.20
2019-06-26T14:38:28.414Z,23.20
2019-06-26T14:40:55.909Z,23.20
2019-06-26T14:43:22.468Z,23.20
2019-06-26T14:45:48.907Z,23.20
2019-06-26T14:48:15.527Z,23.20
2019-06-26T14:50:42.012Z,23.20
2019-06-26T14:53:08.450Z,23.30
2019-06-26T14:55:34.948Z,23.20
2019-06-26T14:58:01.498Z,23.30
2019-06-26T15:00:27.935Z,23.20
2019-06-26T15:02:54.427Z,23.20
2019-06-26T15:05:20.852Z,23.20
2019-06-26T15:07:50.127Z,23.30
2019-06-26T15:10:15.557Z,23.30
2019-06-26T15:12:42.031Z,23.30
2019-06-26T15:15:08.475Z,23.20
2019-06-26T15:17:34.914Z,23.20
2019-06-26T15:20:01.373Z,23.30
2019-06-26T15:22:27.806Z,23.30
2019-06-26T15:24:54.294Z,23.30
2019-06-26T15:27:20.839Z,23.30
2019-06-26T15:29:47.240Z,23.30
2019-06-26T15:32:13.695Z,23.30
2019-06-26T15:34:40.145Z,23.30
2019-06-26T15:37:06.570Z,23.30
2019-06-26T15:39:33.077Z,23.30
2019-06-26T15:41:59.649Z,23.30
2019-06-26T15:44:26.058Z,23.30
2019-06-26T15:46:52.528Z,23.30
2019-06-26T15:49:18.987Z,23.30
2019-06-26T15:51:45.434Z,23.30
2019-06-26T15:54:11.906Z,23.30
2019-06-26T15:56:38.347Z,23.30
2019-06-26T15:59:04.773Z,23.30
2019-06-26T16:01:31.239Z,23.30
2019-06-26T16:03:57.689Z,23.30
2019-06-26T16:06:24.184Z,23.30
2019-06-26T16:08:50.682Z,23.30
2019-06-26T16:11:17.124Z,23.30
2019-06-26T16:13:43.530Z,23.40
2019-06-26T16:16:11.225Z,23.30
2019-06-26T16:18:37.646Z,23.40
2019-06-26T16:21:04.066Z,23.30
2019-06-26T16:23:30.538Z,23.30
2019-06-26T16:25:57.010Z,23.40
2019-06-26T16:28:23.422Z,23.30
2019-06-26T16:30:50.902Z,23.30
2019-06-26T16:33:17.376Z,23.40
2019-06-26T16:35:43.803Z,23.30
2019-06-26T16:38:10.336Z,23.40
2019-06-26T16:43:22.196Z,23.40
2019-06-26T16:45:48.715Z,23.30
2019-06-26T16:48:15.181Z,23.40
2019-06-26T16:50:41.691Z,23.40
2019-06-26T16:53:08.111Z,23.40
2019-06-26T16:55:34.572Z,23.40
2019-06-26T16:58:01.057Z,23.40
2019-06-26T17:00:27.552Z,23.40
2019-06-26T17:02:53.985Z,23.40
2019-06-26T17:05:20.594Z,23.40
2019-06-26T17:07:47.081Z,23.40
2019-06-26T17:10:13.532Z,23.40
2019-06-26T17:12:40.060Z,23.40
2019-06-26T17:15:06.449Z,23.40
2019-06-26T17:17:32.897Z,23.40
2019-06-26T17:19:59.363Z,23.40
2019-06-26T17:22:25.818Z,23.40
2019-06-26T17:24:52.257Z,23.40
2019-06-26T17:27:18.721Z,23.40
2019-06-26T17:29:45.229Z,23.40
2019-06-26T17:32:11.647Z,23.40
2019-06-26T17:34:38.295Z,23.40
2019-06-26T17:37:04.809Z,23.40
2019-06-26T17:39:31.253Z,23.40
2019-06-26T17:41:57.703Z,23.50
2019-06-26T17:44:24.138Z,23.40
2019-06-26T17:46:50.587Z,23.40
2019-06-26T17:49:17.140Z,23.40
2019-06-26T17:51:43.645Z,23.40
2019-06-26T17:54:10.056Z,23.40
2019-06-26T17:56:36.549Z,23.50
2019-06-26T17:59:03.037Z,23.50
2019-06-26T18:01:29.543Z,23.50
2019-06-26T18:03:56.020Z,23.40
2019-06-26T18:06:22.432Z,23.40
2019-06-26T18:08:48.907Z,23.50
2019-06-26T18:11:15.364Z,23.50
2019-06-26T18:13:41.793Z,23.50
2019-06-26T18:16:08.237Z,23.50
2019-06-26T18:18:34.690Z,23.50
2019-06-26T18:21:01.131Z,23.40
2019-06-26T18:23:37.331Z,23.50
2019-06-26T18:26:11.543Z,23.50
2019-06-26T18:28:24.779Z,23.50
2019-06-26T18:30:51.328Z,23.50
2019-06-26T18:33:17.895Z,23.50
2019-06-26T18:35:44.345Z,23.50
2019-06-26T18:38:10.778Z,23.50
2019-06-26T18:40:37.257Z,23.50
2019-06-26T18:43:03.675Z,23.60
2019-06-26T18:45:30.198Z,23.60
2019-06-26T18:47:56.704Z,23.60
2019-06-26T18:50:23.124Z,23.60
2019-06-26T18:52:49.559Z,23.60
2019-06-26T18:55:16.133Z,23.60
2019-06-26T18:57:42.664Z,23.60
2019-06-26T19:00:09.221Z,23.60
2019-06-26T19:02:35.757Z,23.60
2019-06-26T19:05:02.313Z,23.60
2019-06-26T19:07:28.763Z,23.60
2019-06-26T19:09:55.300Z,23.70
2019-06-26T19:12:21.720Z,23.60
2019-06-26T19:14:48.196Z,23.70
2019-06-26T19:17:14.671Z,23.60
2019-06-26T19:19:41.179Z,23.60
2019-06-26T19:22:07.622Z,23.60
2019-06-26T19:24:34.119Z,23.60
2019-06-26T19:27:00.565Z,23.70
2019-06-26T19:29:27.058Z,23.60
2019-06-26T19:31:53.653Z,23.70
2019-06-26T19:34:20.130Z,23.70
2019-06-26T19:36:50.469Z,23.70
2019-06-26T19:39:14.797Z,23.70
2019-06-26T19:41:41.223Z,23.70
2019-06-26T19:44:08.931Z,23.70
2019-06-26T19:46:35.729Z,23.70
2019-06-26T19:49:02.179Z,23.70
2019-06-26T19:51:28.624Z,23.70
2019-06-26T19:53:55.044Z,23.70
2019-06-26T19:56:21.543Z,23.70
2019-06-26T19:58:47.952Z,23.70
2019-06-26T20:01:14.429Z,23.70
2019-06-26T20:03:40.871Z,23.70
2019-06-26T20:06:07.306Z,23.70
2019-06-26T20:08:34.699Z,23.70
2019-06-26T20:11:01.151Z,23.70
2019-06-26T20:13:27.568Z,23.70
2019-06-26T20:15:54.061Z,23.70
2019-06-26T20:18:20.499Z,23.70
2019-06-26T20:20:46.958Z,23.70
2019-06-26T20:23:13.411Z,23.70
2019-06-26T20:25:39.875Z,23.70
2019-06-26T20:28:06.320Z,23.80
2019-06-26T20:30:32.817Z,23.70
2019-06-26T20:32:59.257Z,23.70
2019-06-26T20:35:25.710Z,23.70
2019-06-26T20:37:52.161Z,23.80
2019-06-26T20:40:18.632Z,23.80
2019-06-26T20:42:45.116Z,23.80
2019-06-26T20:45:11.625Z,23.80
2019-06-26T20:47:38.033Z,23.80
2019-06-26T20:50:04.466Z,23.80
2019-06-26T20:52:30.989Z,23.80
2019-06-26T20:55:01.948Z,23.80
2019-06-26T20:57:25.532Z,23.80
2019-06-26T20:59:52.029Z,23.80
2019-06-26T21:02:18.512Z,23.80
2019-06-26T21:04:44.894Z,23.80
2019-06-26T21:07:11.386Z,23.80
2019-06-26T21:09:38.029Z,23.80
2019-06-26T21:12:04.574Z,23.80
2019-06-26T21:14:32.916Z,23.80
2019-06-26T21:16:59.360Z,23.80
2019-06-26T21:19:25.836Z,23.80
2019-06-26T21:21:52.533Z,23.80
2019-06-26T21:24:19.061Z,23.80
2019-06-26T21:26:45.524Z,23.80
2019-06-26T21:29:12.003Z,23.80
2019-06-26T21:31:38.486Z,23.80
2019-06-26T21:34:04.896Z,23.80
2019-06-26T21:36:31.392Z,23.80
2019-06-26T21:38:57.813Z,23.80
2019-06-26T21:41:24.260Z,23.80
2019-06-26T21:43:50.818Z,23.80
2019-06-26T21:46:17.274Z,23.80
2019-06-26T21:48:43.746Z,23.80
2019-06-26T21:51:10.270Z,23.80
2019-06-26T21:53:36.748Z,23.80
2019-06-26T21:56:03.251Z,23.80
2019-06-26T21:58:29.905Z,23.80
2019-06-26T22:00:56.414Z,23.80
2019-06-26T22:03:22.826Z,23.80
2019-06-26T22:05:49.391Z,23.80
2019-06-26T22:08:15.885Z,23.80
2019-06-26T22:10:42.354Z,23.80
2019-06-26T22:13:08.828Z,23.80
2019-06-26T22:15:35.387Z,23.80
2019-06-26T22:18:01.943Z,23.80
2019-06-26T22:20:28.380Z,23.80
2019-06-26T22:22:54.794Z,23.80
2019-06-26T22:25:21.252Z,23.80
2019-06-26T22:27:47.737Z,23.80
2019-06-26T22:30:14.189Z,23.80
2019-06-26T22:32:40.647Z,23.80
2019-06-26T22:35:07.183Z,23.80
2019-06-26T22:37:33.626Z,23.80
2019-06-26T22:40:00.035Z,23.80
2019-06-26T22:42:26.629Z,23.80
2019-06-26T22:44:53.142Z,23.80
2019-06-26T22:47:19.601Z,23.80
2019-06-26T22:49:46.050Z,23.80
2019-06-26T22:52:12.497Z,23.80
2019-06-26T22:54:38.920Z,23.80
2019-06-26T22:57:05.389Z,23.80
2019-06-26T22:59:31.846Z,23.80
2019-06-26T23:01:58.251Z,23.80
2019-06-26T23:04:24.741Z,23.80
2019-06-26T23:06:51.168Z,23.80
2019-06-26T23:09:17.620Z,23.80
2019-06-26T23:11:44.083Z,23.80
2019-06-26T23:14:10.657Z,23.80
2019-06-26T23:16:37.160Z,23.80
2019-06-26T23:19:03.625Z,23.80
2019-06-26T23:21:30.064Z,23.80
2019-06-26T23:23:56.510Z,23.70
2019-06-26T23:26:24.572Z,23.70
2019-06-26T23:28:51.136Z,23.70
2019-06-26T23:31:17.563Z,23.70
2019-06-26T23:33:44.069Z,23.70
2019-06-26T23:36:10.490Z,23.70
2019-06-26T23:38:36.929Z,23.70
2019-06-26T23:41:03.396Z,23.70
2019-06-26T23:43:29.830Z,23.70
2019-06-26T23:45:56.266Z,23.70
2019-06-26T23:48:22.722Z,23.70
2019-06-26T23:50:49.162Z,23.70
2019-06-26T23:53:16.697Z,23.70
2019-06-26T23:55:43.186Z,23.70
2019-06-26T23:58:09.743Z,23.70
